createdAt,value
2022-09-20T00:01:37.099Z,76.14
2022-09-20T00:03:09.992Z,76.38
2022-09-20T00:04:42.106Z,76.36
2022-09-20T00:06:21.140Z,76.44
2022-09-20T00:07:53.160Z,76.41
2022-09-20T00:09:25.093Z,76.54
2022-09-20T00:11:05.061Z,76.08
2022-09-20T00:12:37.004Z,75.97
2022-09-20T00:14:09.132Z,76.17
2022-09-20T00:15:45.723Z,76.54
2022-09-20T00:17:17.679Z,76.32
2022-09-20T00:18:53.481Z,76.54
2022-09-20T00:20:26.038Z,75.77
2022-09-20T00:21:58.016Z,75.79
2022-09-20T00:23:30.516Z,75.48
2022-09-20T00:25:02.491Z,75.70
2022-09-20T00:26:36.818Z,75.43
2022-09-20T00:28:09.374Z,75.13
2022-09-20T00:29:41.447Z,75.00
2022-09-20T00:31:14.089Z,74.92
2022-09-20T00:32:45.994Z,75.13
2022-09-20T00:34:36.714Z,75.17
2022-09-20T00:36:08.780Z,75.39
2022-09-20T00:37:42.391Z,75.72
2022-09-20T00:39:15.535Z,75.63
2022-09-20T00:40:47.558Z,75.65
2022-09-20T00:42:19.542Z,76.10
2022-09-20T00:43:51.763Z,76.18
2022-09-20T00:45:26.242Z,76.26
2022-09-20T00:47:07.016Z,75.93
2022-09-20T00:48:38.948Z,75.73
2022-09-20T00:50:42.746Z,75.43
2022-09-20T00:52:16.059Z,75.10
2022-09-20T00:53:49.679Z,75.32
2022-09-20T00:55:22.239Z,75.13
2022-09-20T00:56:54.380Z,75.40
2022-09-20T00:58:28.169Z,75.09
2022-09-20T01:00:00.177Z,74.66
2022-09-20T01:01:32.708Z,74.97
2022-09-20T01:03:08.179Z,75.02
2022-09-20T01:04:42.382Z,75.23
2022-09-20T01:06:16.048Z,75.41
2022-09-20T01:07:50.068Z,75.48
2022-09-20T01:09:22.198Z,75.04
2022-09-20T01:10:54.300Z,75.01
2022-09-20T01:12:34.823Z,75.00
2022-09-20T01:14:06.804Z,75.08
2022-09-20T01:15:40.966Z,75.03
2022-09-20T01:17:13.229Z,74.93
2022-09-20T01:18:45.620Z,74.77
2022-09-20T01:20:29.894Z,74.84
2022-09-20T01:22:05.226Z,74.42
2022-09-20T01:24:14.618Z,73.98
2022-09-20T01:26:26.916Z,74.25
2022-09-20T01:27:59.188Z,74.76
2022-09-20T01:29:54.780Z,74.24
2022-09-20T01:31:29.597Z,74.37
2022-09-20T01:33:22.193Z,74.29
2022-09-20T01:34:55.788Z,74.47
2022-09-20T01:36:35.395Z,74.55
2022-09-20T01:38:17.999Z,74.45
2022-09-20T01:40:14.717Z,74.67
2022-09-20T01:41:53.241Z,74.94
2022-09-20T01:44:18.579Z,75.18
2022-09-20T01:45:50.671Z,75.31
2022-09-20T01:47:44.052Z,75.27
2022-09-20T01:49:31.279Z,75.41
2022-09-20T01:51:28.062Z,75.78
2022-09-20T01:53:49.303Z,76.28
2022-09-20T01:55:58.988Z,76.29
2022-09-20T01:57:36.952Z,76.24
2022-09-20T01:59:30.863Z,76.35
2022-09-20T02:01:06.218Z,76.50
2022-09-20T02:03:19.687Z,76.04
2022-09-20T02:04:57.486Z,76.00
2022-09-20T02:06:41.348Z,75.89
2022-09-20T02:08:22.455Z,76.39
2022-09-20T02:10:09.617Z,76.52
2022-09-20T02:12:14.498Z,75.96
2022-09-20T02:13:59.343Z,75.87
2022-09-20T02:15:49.618Z,75.81
2022-09-20T02:17:50.951Z,75.97
2022-09-20T02:19:50.480Z,75.50
2022-09-20T02:21:39.341Z,74.99
2022-09-20T02:23:36.128Z,74.63
2022-09-20T02:25:21.614Z,74.79
2022-09-20T02:27:09.205Z,74.74
2022-09-20T02:28:50.311Z,74.79
2022-09-20T02:30:25.700Z,74.83
2022-09-20T02:32:03.446Z,75.31
2022-09-20T02:33:41.679Z,75.76
2022-09-20T02:35:13.885Z,75.70
2022-09-20T02:37:16.201Z,75.65
2022-09-20T02:39:16.036Z,75.57
2022-09-20T02:41:23.459Z,75.46
2022-09-20T02:43:16.938Z,75.50
2022-09-20T02:45:08.702Z,75.22
2022-09-20T02:46:52.650Z,75.25
2022-09-20T02:48:25.765Z,75.45
2022-09-20T02:50:35.800Z,75.51
2022-09-20T02:52:15.674Z,75.55
2022-09-20T02:54:05.731Z,75.97
2022-09-20T02:56:34.824Z,75.88
2022-09-20T02:58:09.640Z,75.80
2022-09-20T02:59:51.002Z,76.16
2022-09-20T03:01:25.535Z,75.94
2022-09-20T03:03:45.300Z,75.42
2022-09-20T03:06:03.735Z,75.95
2022-09-20T03:07:53.523Z,76.25
2022-09-20T03:09:45.532Z,76.55
2022-09-20T03:11:37.720Z,76.75
2022-09-20T03:13:43.310Z,76.64
2022-09-20T03:15:39.635Z,76.60
2022-09-20T03:17:23.518Z,77.01
2022-09-20T03:19:17.766Z,77.14
2022-09-20T03:21:23.282Z,76.50
2022-09-20T03:23:19.745Z,76.91
2022-09-20T03:24:54.781Z,76.58
2022-09-20T03:26:42.941Z,76.42
2022-09-20T03:28:43.054Z,76.30
2022-09-20T03:30:33.735Z,75.89
2022-09-20T03:32:26.665Z,75.30
2022-09-20T03:34:08.613Z,75.39
2022-09-20T03:36:17.634Z,75.52
2022-09-20T03:38:01.538Z,75.58
2022-09-20T03:40:09.997Z,75.20
2022-09-20T03:41:54.030Z,75.70
2022-09-20T03:43:26.176Z,75.49
2022-09-20T03:45:22.791Z,75.33
2022-09-20T03:47:10.673Z,75.24
2022-09-20T03:49:29.595Z,75.46
2022-09-20T03:51:07.429Z,75.28
2022-09-20T03:52:58.253Z,75.09
2022-09-20T03:55:06.630Z,75.28
2022-09-20T03:56:56.303Z,75.16
2022-09-20T03:58:35.395Z,75.15
2022-09-20T04:00:23.836Z,75.42
2022-09-20T04:02:29.730Z,75.32
2022-09-20T04:04:04.849Z,75.17
2022-09-20T04:05:57.628Z,75.32
2022-09-20T04:07:41.715Z,75.54
2022-09-20T04:09:35.417Z,75.74
2022-09-20T04:12:58.734Z,76.23
2022-09-20T04:14:38.666Z,76.32
2022-09-20T04:16:22.849Z,75.61
2022-09-20T04:18:04.143Z,75.69
2022-09-20T04:20:00.068Z,76.02
2022-09-20T04:21:40.538Z,75.42
2022-09-20T04:23:50.497Z,75.19
2022-09-20T04:25:31.397Z,75.28
2022-09-20T04:27:14.616Z,75.15
2022-09-20T04:28:56.300Z,75.05
2022-09-20T04:30:32.304Z,75.36
2022-09-20T04:32:33.426Z,75.48
2022-09-20T04:34:12.738Z,75.49
2022-09-20T04:36:29.954Z,75.88
2022-09-20T04:38:05.807Z,76.01
2022-09-20T04:39:48.635Z,75.87
2022-09-20T04:41:42.070Z,75.98
2022-09-20T04:43:17.668Z,76.19
2022-09-20T04:45:08.578Z,75.74
2022-09-20T04:47:06.347Z,75.76
2022-09-20T04:49:15.859Z,76.11
2022-09-20T04:50:56.909Z,76.61
2022-09-20T04:53:01.256Z,76.56
2022-09-20T04:54:55.257Z,76.55
2022-09-20T04:56:41.869Z,76.92
2022-09-20T04:58:39.535Z,77.16
2022-09-20T05:00:21.246Z,77.13
2022-09-20T05:02:29.039Z,77.02
2022-09-20T05:04:25.839Z,76.99
2022-09-20T05:05:57.828Z,77.57
2022-09-20T05:07:51.914Z,77.60
2022-09-20T05:09:48.929Z,77.44
2022-09-20T05:11:51.877Z,77.58
2022-09-20T05:13:54.750Z,77.50
2022-09-20T05:15:40.062Z,77.59
2022-09-20T05:17:19.675Z,77.63
2022-09-20T05:19:07.767Z,77.66
2022-09-20T05:21:21.205Z,78.08
2022-09-20T05:23:00.824Z,78.11
2022-09-20T05:25:00.634Z,78.12
2022-09-20T05:26:57.477Z,78.13
2022-09-20T05:29:10.912Z,78.05
2022-09-20T05:30:47.305Z,77.85
2022-09-20T05:33:06.062Z,77.74
2022-09-20T05:35:04.431Z,77.68
2022-09-20T05:36:39.585Z,77.43
2022-09-20T05:41:00.813Z,76.62
2022-09-20T05:42:47.456Z,76.13
2022-09-20T05:44:37.597Z,76.21
2022-09-20T05:46:22.856Z,75.90
2022-09-20T05:48:00.082Z,75.99
2022-09-20T05:49:38.194Z,76.03
2022-09-20T05:51:28.612Z,75.93
2022-09-20T05:53:06.680Z,75.76
2022-09-20T05:55:02.271Z,75.31
2022-09-20T05:56:53.204Z,75.38
2022-09-20T05:58:45.791Z,75.30
2022-09-20T06:00:18.019Z,75.05
2022-09-20T06:02:04.125Z,74.79
2022-09-20T06:04:00.589Z,75.04
2022-09-20T06:06:10.000Z,74.72
2022-09-20T06:08:00.856Z,74.57
2022-09-20T06:10:08.060Z,70.38
2022-09-20T06:12:02.034Z,64.38
2022-09-20T06:13:43.843Z,63.08
2022-09-20T06:15:22.131Z,62.37
2022-09-20T06:17:02.917Z,61.89
2022-09-20T06:18:50.658Z,61.67
2022-09-20T06:20:39.924Z,61.00
2022-09-20T06:22:20.536Z,60.61
2022-09-20T06:23:57.760Z,60.65
2022-09-20T06:25:35.148Z,59.05
2022-09-20T06:27:13.791Z,58.85
2022-09-20T06:28:54.211Z,57.33
2022-09-20T06:30:30.619Z,57.90
2022-09-20T06:32:03.035Z,57.71
2022-09-20T06:33:41.258Z,57.30
2022-09-20T06:35:13.334Z,56.37
2022-09-20T06:37:09.822Z,55.49
2022-09-20T06:39:17.866Z,55.82
2022-09-20T06:41:20.498Z,55.61
2022-09-20T06:42:54.356Z,55.87
2022-09-20T06:44:26.500Z,55.89
2022-09-20T06:45:59.299Z,55.51
2022-09-20T06:47:34.665Z,56.13
2022-09-20T06:49:09.879Z,55.62
2022-09-20T06:50:46.048Z,55.74
2022-09-20T06:52:22.897Z,55.94
2022-09-20T06:53:56.199Z,56.14
2022-09-20T06:55:31.427Z,56.10
2022-09-20T06:57:05.765Z,55.86
2022-09-20T06:58:38.088Z,55.69
2022-09-20T07:00:14.004Z,54.85
2022-09-20T07:01:46.106Z,54.48
2022-09-20T07:03:20.307Z,53.57
2022-09-20T07:04:58.377Z,54.33
2022-09-20T07:06:30.555Z,53.82
2022-09-20T07:08:02.747Z,53.60
2022-09-20T07:09:35.021Z,52.82
2022-09-20T07:11:10.567Z,52.85
2022-09-20T07:12:43.309Z,52.19
2022-09-20T07:15:49.573Z,51.53
2022-09-20T07:17:22.760Z,52.06
2022-09-20T07:18:55.205Z,51.94
2022-09-20T07:20:28.242Z,52.75
2022-09-20T07:22:00.561Z,51.12
2022-09-20T07:23:37.608Z,51.26
2022-09-20T07:25:09.942Z,51.67
2022-09-20T07:26:56.545Z,51.30
2022-09-20T07:28:29.693Z,51.23
2022-09-20T07:30:02.967Z,51.44
2022-09-20T07:31:35.460Z,51.45
2022-09-20T07:33:10.375Z,51.24
2022-09-20T07:34:42.431Z,50.65
2022-09-20T07:36:14.772Z,50.96
2022-09-20T07:37:47.394Z,50.45
2022-09-20T07:39:19.886Z,51.00
2022-09-20T07:41:00.877Z,50.95
2022-09-20T07:42:32.867Z,50.35
2022-09-20T07:44:23.507Z,50.44
2022-09-20T07:45:56.403Z,50.75
2022-09-20T07:47:37.048Z,50.00
2022-09-20T07:49:09.343Z,48.79
2022-09-20T07:50:41.359Z,49.24
2022-09-20T07:52:14.979Z,48.90
2022-09-20T07:53:47.024Z,49.29
2022-09-20T07:55:19.147Z,49.73
2022-09-20T07:56:51.292Z,48.30
2022-09-20T07:58:23.549Z,49.10
2022-09-20T07:59:55.911Z,49.46
2022-09-20T08:01:28.135Z,48.56
2022-09-20T08:03:00.765Z,48.66
2022-09-20T08:04:32.741Z,48.12
2022-09-20T08:06:08.791Z,48.88
2022-09-20T08:07:41.324Z,47.72
2022-09-20T08:09:14.197Z,46.65
2022-09-20T08:10:47.009Z,46.59
2022-09-20T08:14:21.065Z,46.72
2022-09-20T08:16:02.716Z,45.40
2022-09-20T08:17:34.993Z,45.89
2022-09-20T08:19:07.415Z,46.00
2022-09-20T08:20:40.085Z,46.33
2022-09-20T08:22:13.041Z,45.91
2022-09-20T08:23:48.807Z,46.40
2022-09-20T08:25:21.182Z,46.18
2022-09-20T08:26:53.569Z,47.50
2022-09-20T08:28:26.013Z,46.95
2022-09-20T08:29:58.465Z,46.73
2022-09-20T08:31:35.121Z,44.97
2022-09-20T08:33:07.436Z,45.19
2022-09-20T08:34:41.053Z,45.22
2022-09-20T08:36:18.071Z,44.81
2022-09-20T08:37:55.303Z,45.12
2022-09-20T08:41:35.328Z,45.51
2022-09-20T08:43:09.717Z,45.54
2022-09-20T08:45:00.716Z,46.53
2022-09-20T08:46:36.044Z,45.65
2022-09-20T08:48:14.443Z,45.40
2022-09-20T08:49:46.697Z,44.98
2022-09-20T08:51:23.321Z,44.85
2022-09-20T08:53:01.287Z,45.69
2022-09-20T08:54:35.478Z,46.35
2022-09-20T08:56:09.623Z,45.80
2022-09-20T08:57:42.061Z,45.08
2022-09-20T08:59:20.600Z,44.78
2022-09-20T09:00:53.434Z,44.51
2022-09-20T09:02:26.014Z,45.04
2022-09-20T09:04:17.624Z,44.76
2022-09-20T09:05:56.290Z,45.63
2022-09-20T09:07:29.531Z,45.64
2022-09-20T09:09:02.409Z,45.49
2022-09-20T09:10:45.350Z,45.63
2022-09-20T09:12:27.767Z,45.98
2022-09-20T09:14:05.017Z,45.14
2022-09-20T09:15:39.147Z,45.74
2022-09-20T09:17:12.772Z,45.34
2022-09-20T09:18:46.745Z,45.03
2022-09-20T09:20:24.621Z,45.41
2022-09-20T09:21:59.147Z,44.42
2022-09-20T09:23:41.584Z,44.87
2022-09-20T09:25:34.321Z,43.97
2022-09-20T09:27:19.205Z,43.85
2022-09-20T09:29:17.957Z,43.19
2022-09-20T09:30:50.432Z,42.90
2022-09-20T09:32:28.952Z,42.97
2022-09-20T09:34:01.558Z,42.86
2022-09-20T09:35:36.870Z,42.68
2022-09-20T09:37:28.322Z,42.64
2022-09-20T09:39:38.572Z,42.29
2022-09-20T09:41:36.245Z,42.05
2022-09-20T09:43:23.799Z,42.44
2022-09-20T09:45:24.583Z,42.80
2022-09-20T09:46:58.104Z,42.87
2022-09-20T09:48:31.648Z,43.01
2022-09-20T09:50:09.483Z,42.79
2022-09-20T09:51:44.512Z,42.76
2022-09-20T09:53:22.431Z,41.74
2022-09-20T09:55:03.081Z,42.13
2022-09-20T09:56:57.775Z,40.79
2022-09-20T09:58:55.874Z,41.01
2022-09-20T10:00:29.354Z,40.69
2022-09-20T10:02:23.995Z,40.81
2022-09-20T10:04:10.171Z,40.99
2022-09-20T10:05:48.134Z,41.26
2022-09-20T10:07:41.917Z,41.29
2022-09-20T10:09:22.163Z,41.92
2022-09-20T10:11:12.695Z,41.13
2022-09-20T10:13:40.755Z,41.23
2022-09-20T10:15:49.341Z,40.43
2022-09-20T10:17:35.316Z,39.89
2022-09-20T10:19:07.525Z,40.45
2022-09-20T10:22:34.953Z,41.26
2022-09-20T10:24:55.672Z,41.40
2022-09-20T10:26:27.847Z,41.04
2022-09-20T10:28:18.815Z,40.73
2022-09-20T10:30:00.925Z,40.63
2022-09-20T10:31:43.303Z,40.67
2022-09-20T10:33:46.557Z,41.12
2022-09-20T10:35:56.360Z,40.47
2022-09-20T10:37:49.662Z,39.95
2022-09-20T10:39:36.734Z,41.12
2022-09-20T10:41:48.692Z,40.25
2022-09-20T10:43:35.606Z,40.77
2022-09-20T10:46:14.475Z,40.79
2022-09-20T10:48:05.013Z,40.48
2022-09-20T10:49:57.817Z,40.30
2022-09-20T10:52:21.671Z,40.27
2022-09-20T10:54:32.792Z,40.99
2022-09-20T10:56:28.157Z,40.06
2022-09-20T10:58:38.341Z,40.03
2022-09-20T11:00:25.570Z,39.54
2022-09-20T11:02:22.131Z,38.84
2022-09-20T11:04:12.649Z,38.39
2022-09-20T11:06:15.992Z,38.71
2022-09-20T11:07:50.943Z,38.01
2022-09-20T11:09:30.184Z,38.09
2022-09-20T11:11:06.926Z,38.16
2022-09-20T11:13:20.567Z,38.15
2022-09-20T11:15:06.028Z,39.09
2022-09-20T11:16:46.666Z,39.74
2022-09-20T11:18:51.116Z,38.44
2022-09-20T11:20:28.156Z,39.07
2022-09-20T11:22:10.674Z,38.82
2022-09-20T11:24:23.769Z,39.53
2022-09-20T11:25:59.911Z,39.23
2022-09-20T11:27:38.603Z,39.08
2022-09-20T11:29:13.598Z,38.85
2022-09-20T11:31:12.958Z,39.37
2022-09-20T11:33:01.488Z,37.82
2022-09-20T11:34:38.531Z,38.04
2022-09-20T11:36:17.204Z,38.35
2022-09-20T11:38:38.979Z,38.31
2022-09-20T11:40:28.411Z,37.80
2022-09-20T11:42:02.194Z,38.55
2022-09-20T11:43:35.772Z,37.90
2022-09-20T11:45:12.428Z,37.95
2022-09-20T11:46:50.918Z,38.09
2022-09-20T11:48:46.572Z,38.33
2022-09-20T11:50:24.503Z,37.78
2022-09-20T11:52:05.796Z,38.45
2022-09-20T11:53:52.670Z,38.30
2022-09-20T11:55:44.235Z,38.52
2022-09-20T11:57:17.739Z,38.54
2022-09-20T11:59:04.657Z,38.78
2022-09-20T12:00:41.770Z,38.56
2022-09-20T12:02:52.686Z,37.86
2022-09-20T12:04:32.919Z,39.07
2022-09-20T12:06:09.208Z,39.24
2022-09-20T12:07:44.142Z,38.64
2022-09-20T12:09:37.418Z,38.83
2022-09-20T12:11:12.649Z,37.84
2022-09-20T12:12:47.510Z,37.27
2022-09-20T12:14:24.339Z,37.13
2022-09-20T12:16:17.929Z,35.73
2022-09-20T12:17:53.065Z,36.50
2022-09-20T12:19:32.860Z,37.84
2022-09-20T12:21:16.637Z,36.23
2022-09-20T12:22:48.792Z,35.84
2022-09-20T12:24:22.999Z,37.79
2022-09-20T12:26:06.813Z,36.92
2022-09-20T12:27:38.893Z,35.38
2022-09-20T12:29:34.567Z,34.42
2022-09-20T12:31:34.023Z,34.78
2022-09-20T12:33:20.125Z,35.35
2022-09-20T12:34:52.965Z,35.05
2022-09-20T12:36:26.538Z,34.63
2022-09-20T12:38:26.188Z,34.53
2022-09-20T12:39:58.821Z,34.06
2022-09-20T12:41:51.834Z,35.34
2022-09-20T12:43:24.482Z,35.40
2022-09-20T12:45:04.609Z,36.45
2022-09-20T12:46:43.581Z,35.91
2022-09-20T12:48:20.205Z,36.05
2022-09-20T12:50:12.801Z,35.65
2022-09-20T12:52:10.564Z,36.50
2022-09-20T12:55:30.810Z,36.92
2022-09-20T12:57:19.511Z,37.10
2022-09-20T12:58:53.964Z,36.77
2022-09-20T13:00:39.320Z,37.02
2022-09-20T13:02:43.231Z,36.84
2022-09-20T13:04:41.427Z,37.61
2022-09-20T13:06:16.969Z,37.42
2022-09-20T13:07:56.988Z,37.58
2022-09-20T13:09:29.507Z,36.94
2022-09-20T13:11:14.137Z,36.82
2022-09-20T13:12:50.438Z,36.29
2022-09-20T13:14:29.288Z,36.00
2022-09-20T13:16:02.625Z,35.53
2022-09-20T13:17:35.131Z,34.77
2022-09-20T13:19:08.588Z,35.54
2022-09-20T13:20:42.005Z,35.10
2022-09-20T13:22:38.559Z,34.87
2022-09-20T13:24:16.931Z,34.19
2022-09-20T13:25:50.695Z,33.64
2022-09-20T13:29:30.049Z,34.36
2022-09-20T13:31:38.121Z,34.83
2022-09-20T13:33:36.470Z,34.80
2022-09-20T13:35:11.562Z,35.17
2022-09-20T13:36:43.842Z,34.41
2022-09-20T13:38:22.813Z,34.88
2022-09-20T13:39:55.578Z,34.34
2022-09-20T13:41:29.615Z,34.37
2022-09-20T13:43:30.746Z,34.88
2022-09-20T13:45:04.630Z,34.99
2022-09-20T13:46:44.530Z,35.14
2022-09-20T13:48:17.775Z,34.11
2022-09-20T13:49:51.142Z,35.02
2022-09-20T13:51:27.022Z,35.14
2022-09-20T13:53:01.129Z,34.63
2022-09-20T13:54:34.301Z,34.87
2022-09-20T13:56:12.104Z,34.60
2022-09-20T13:57:45.061Z,35.63
2022-09-20T13:59:19.684Z,34.92
2022-09-20T14:00:55.358Z,33.90
2022-09-20T14:04:09.841Z,34.05
2022-09-20T14:05:47.631Z,33.95
2022-09-20T14:07:20.386Z,34.45
2022-09-20T14:08:52.882Z,35.15
2022-09-20T14:10:37.605Z,35.71
2022-09-20T14:12:12.085Z,35.58
2022-09-20T14:13:46.814Z,36.26
2022-09-20T14:15:19.466Z,36.60
2022-09-20T14:16:53.717Z,36.44
2022-09-20T14:18:26.206Z,36.38
2022-09-20T14:19:58.734Z,35.30
2022-09-20T14:21:33.827Z,34.45
2022-09-20T14:23:06.327Z,35.57
2022-09-20T14:24:38.666Z,35.04
2022-09-20T14:26:16.884Z,34.90
2022-09-20T14:27:49.213Z,34.43
2022-09-20T14:29:40.556Z,34.39
2022-09-20T14:31:31.339Z,36.13
2022-09-20T14:33:05.727Z,35.52
2022-09-20T14:34:39.642Z,35.66
2022-09-20T14:36:17.233Z,35.73
2022-09-20T14:39:29.805Z,35.46
2022-09-20T14:41:02.132Z,35.35
2022-09-20T14:42:37.497Z,35.46
2022-09-20T14:44:32.729Z,35.52
2022-09-20T14:46:07.536Z,34.52
2022-09-20T14:47:54.103Z,34.55
2022-09-20T14:49:26.370Z,34.81
2022-09-20T14:51:16.177Z,34.35
2022-09-20T14:53:22.988Z,35.11
2022-09-20T14:55:02.890Z,35.79
2022-09-20T14:56:38.781Z,35.78
2022-09-20T14:58:13.911Z,34.92
2022-09-20T14:59:46.414Z,35.11
2022-09-20T15:01:26.297Z,34.76
2022-09-20T15:03:05.661Z,35.20
2022-09-20T15:04:40.385Z,35.43
2022-09-20T15:06:13.620Z,35.81
2022-09-20T15:07:46.013Z,35.72
2022-09-20T15:09:19.277Z,35.99
2022-09-20T15:10:51.974Z,36.20
2022-09-20T15:14:04.881Z,36.46
2022-09-20T15:15:37.252Z,36.41
2022-09-20T15:17:21.131Z,37.04
2022-09-20T15:18:53.386Z,37.68
2022-09-20T15:20:25.963Z,37.54
2022-09-20T15:21:58.269Z,38.03
2022-09-20T15:23:30.583Z,37.94
2022-09-20T15:25:03.463Z,38.30
2022-09-20T15:26:35.770Z,39.00
2022-09-20T15:28:15.674Z,38.32
2022-09-20T15:29:47.920Z,38.65
2022-09-20T15:31:20.523Z,38.25
2022-09-20T15:32:53.570Z,38.59
2022-09-20T15:34:25.864Z,38.52
2022-09-20T15:35:58.935Z,37.76
2022-09-20T15:37:31.249Z,37.77
2022-09-20T15:39:05.475Z,37.52
2022-09-20T15:40:48.373Z,37.67
2022-09-20T15:42:22.129Z,38.50
2022-09-20T15:43:55.495Z,38.68
2022-09-20T15:45:28.503Z,39.23
2022-09-20T15:47:00.674Z,39.94
2022-09-20T15:48:33.058Z,40.12
2022-09-20T15:50:08.849Z,40.07
2022-09-20T15:51:41.276Z,39.91
2022-09-20T15:53:13.419Z,39.57
2022-09-20T15:54:46.541Z,39.29
2022-09-20T15:56:29.925Z,39.44
2022-09-20T15:58:02.178Z,39.34
2022-09-20T15:59:34.844Z,39.35
2022-09-20T16:01:08.792Z,39.92
2022-09-20T16:02:41.227Z,40.00
2022-09-20T16:04:19.691Z,40.03
2022-09-20T16:06:04.607Z,40.09
2022-09-20T16:07:37.407Z,40.17
2022-09-20T16:09:10.219Z,40.22
2022-09-20T16:10:42.597Z,40.38
2022-09-20T16:12:15.455Z,40.07
2022-09-20T16:13:53.133Z,40.41
2022-09-20T16:15:25.519Z,40.53
2022-09-20T16:16:58.143Z,40.67
2022-09-20T16:18:49.205Z,40.88
2022-09-20T16:20:22.668Z,40.87
2022-09-20T16:21:59.197Z,41.36
2022-09-20T16:23:31.659Z,41.64
2022-09-20T16:25:06.424Z,41.60
2022-09-20T16:26:39.089Z,41.73
2022-09-20T16:28:12.999Z,41.94
2022-09-20T16:29:45.676Z,41.93
2022-09-20T16:31:41.342Z,41.63
2022-09-20T16:33:13.822Z,42.30
2022-09-20T16:34:48.384Z,42.39
2022-09-20T16:36:26.756Z,42.85
2022-09-20T16:38:02.725Z,43.85
2022-09-20T16:39:35.533Z,44.73
2022-09-20T16:41:08.865Z,44.21
2022-09-20T16:42:41.954Z,44.50
2022-09-20T16:44:14.822Z,44.87
2022-09-20T16:45:48.757Z,47.44
2022-09-20T16:47:22.797Z,48.57
2022-09-20T16:48:56.848Z,48.78
2022-09-20T16:50:29.471Z,49.39
2022-09-20T16:52:01.923Z,51.54
2022-09-20T16:53:34.241Z,53.17
2022-09-20T16:55:06.950Z,54.23
2022-09-20T16:56:47.524Z,53.77
2022-09-20T16:58:20.310Z,54.03
2022-09-20T16:59:56.175Z,54.41
2022-09-20T17:01:29.395Z,54.72
2022-09-20T17:03:01.681Z,55.08
2022-09-20T17:04:34.026Z,55.95
2022-09-20T17:06:07.046Z,56.20
2022-09-20T17:07:39.510Z,55.64
2022-09-20T17:09:12.690Z,56.38
2022-09-20T17:10:45.680Z,57.05
2022-09-20T17:12:22.296Z,56.17
2022-09-20T17:13:55.414Z,55.30
2022-09-20T17:15:27.851Z,55.67
2022-09-20T17:17:00.666Z,56.03
2022-09-20T17:18:33.903Z,57.03
2022-09-20T17:20:08.210Z,57.84
2022-09-20T17:21:45.561Z,57.46
2022-09-20T17:23:18.329Z,57.98
2022-09-20T17:24:50.550Z,58.86
2022-09-20T17:26:33.701Z,59.17
2022-09-20T17:28:06.011Z,60.13
2022-09-20T17:29:38.088Z,59.60
2022-09-20T17:31:12.809Z,59.62
2022-09-20T17:32:48.494Z,60.71
2022-09-20T17:34:22.149Z,60.20
2022-09-20T17:35:54.516Z,60.03
2022-09-20T17:37:26.792Z,60.63
2022-09-20T17:39:04.143Z,60.33
2022-09-20T17:40:37.026Z,60.89
2022-09-20T17:42:09.422Z,60.88
2022-09-20T17:43:42.720Z,60.87
2022-09-20T17:45:15.203Z,60.72
2022-09-20T17:46:50.296Z,60.61
2022-09-20T17:48:23.773Z,59.79
2022-09-20T17:49:55.940Z,59.33
2022-09-20T17:51:33.784Z,60.17
2022-09-20T17:53:06.312Z,60.89
2022-09-20T17:54:38.539Z,60.65
2022-09-20T17:56:13.209Z,59.88
2022-09-20T17:57:45.513Z,59.65
2022-09-20T17:59:19.124Z,60.29
2022-09-20T18:00:51.593Z,60.69
2022-09-20T18:02:24.224Z,61.01
2022-09-20T18:03:59.237Z,60.81
2022-09-20T18:05:31.695Z,61.44
2022-09-20T18:07:04.649Z,61.79
2022-09-20T18:08:37.287Z,62.09
2022-09-20T18:10:13.154Z,62.31
2022-09-20T18:11:49.506Z,62.82
2022-09-20T18:13:21.848Z,63.39
2022-09-20T18:14:54.490Z,63.81
2022-09-20T18:16:26.731Z,63.91
2022-09-20T18:17:59.538Z,63.93
2022-09-20T18:19:34.934Z,63.91
2022-09-20T18:21:21.753Z,64.41
2022-09-20T18:22:54.080Z,64.19
2022-09-20T18:24:26.823Z,64.34
2022-09-20T18:26:24.960Z,64.53
2022-09-20T18:27:56.966Z,64.79
2022-09-20T18:31:06.958Z,64.94
2022-09-20T18:32:42.289Z,65.26
2022-09-20T18:34:19.747Z,65.22
2022-09-20T18:35:51.724Z,65.56
2022-09-20T18:37:23.880Z,66.10
2022-09-20T18:38:57.908Z,65.96
2022-09-20T18:40:30.577Z,66.20
2022-09-20T18:42:03.663Z,66.24
2022-09-20T18:43:35.869Z,66.19
2022-09-20T18:45:08.711Z,66.38
2022-09-20T18:46:42.008Z,66.08
2022-09-20T18:48:14.279Z,65.93
2022-09-20T18:49:46.247Z,65.74
2022-09-20T18:51:18.439Z,65.84
2022-09-20T18:52:51.507Z,66.06
2022-09-20T18:54:23.806Z,66.26
2022-09-20T18:55:56.545Z,66.30
2022-09-20T18:57:29.003Z,66.27
2022-09-20T18:59:26.950Z,66.55
2022-09-20T19:01:22.099Z,66.59
2022-09-20T19:03:04.733Z,66.86
2022-09-20T19:05:04.648Z,67.09
2022-09-20T19:06:44.894Z,67.11
2022-09-20T19:08:34.629Z,67.08
2022-09-20T19:10:10.249Z,67.33
2022-09-20T19:11:47.895Z,67.97
2022-09-20T19:13:28.961Z,68.19
2022-09-20T19:15:16.063Z,68.29
2022-09-20T19:16:50.923Z,68.53
2022-09-20T19:18:44.954Z,68.18
2022-09-20T19:20:49.324Z,67.90
2022-09-20T19:22:31.435Z,68.20
2022-09-20T19:24:40.053Z,68.50
2022-09-20T19:26:23.589Z,68.66
2022-09-20T19:27:55.983Z,68.90
2022-09-20T19:29:29.122Z,68.90
2022-09-20T19:31:01.809Z,68.94
2022-09-20T19:32:35.244Z,68.94
2022-09-20T19:35:50.353Z,69.24
2022-09-20T19:37:52.910Z,69.45
2022-09-20T19:39:50.294Z,69.30
2022-09-20T19:41:49.550Z,69.28
2022-09-20T19:43:50.509Z,69.44
2022-09-20T19:45:39.461Z,69.57
2022-09-20T19:47:30.405Z,69.18
2022-09-20T19:49:15.236Z,69.48
2022-09-20T19:50:51.271Z,69.92
2022-09-20T19:52:24.236Z,70.06
2022-09-20T19:53:57.064Z,69.70
2022-09-20T19:55:29.496Z,69.69
2022-09-20T19:57:02.277Z,69.56
2022-09-20T19:58:35.651Z,69.60
2022-09-20T20:00:09.540Z,69.61
2022-09-20T20:01:42.105Z,69.41
2022-09-20T20:03:15.629Z,68.99
2022-09-20T20:04:47.835Z,68.78
2022-09-20T20:06:43.656Z,68.93
2022-09-20T20:10:15.389Z,69.11
2022-09-20T20:12:08.789Z,69.35
2022-09-20T20:14:21.194Z,69.57
2022-09-20T20:15:59.469Z,69.54
2022-09-20T20:17:59.402Z,69.33
2022-09-20T20:19:45.813Z,69.50
2022-09-20T20:21:37.931Z,69.51
2022-09-20T20:23:31.356Z,69.96
2022-09-20T20:25:04.318Z,70.27
2022-09-20T20:26:36.466Z,70.17
2022-09-20T20:28:09.431Z,70.60
2022-09-20T20:29:41.583Z,70.93
2022-09-20T20:31:15.333Z,70.92
2022-09-20T20:32:47.961Z,70.33
2022-09-20T20:34:20.829Z,70.36
2022-09-20T20:36:00.625Z,70.64
2022-09-20T20:37:34.936Z,71.16
2022-09-20T20:39:07.239Z,70.84
2022-09-20T20:40:40.532Z,70.99
2022-09-20T20:42:13.109Z,71.00
2022-09-20T20:43:47.413Z,71.24
2022-09-20T20:45:22.322Z,71.15
2022-09-20T20:46:54.412Z,71.14
2022-09-20T20:48:26.415Z,71.10
2022-09-20T20:50:00.642Z,71.17
2022-09-20T20:51:33.341Z,71.30
2022-09-20T20:53:07.148Z,71.05
2022-09-20T20:54:39.123Z,71.29
2022-09-20T20:56:19.420Z,71.34
2022-09-20T20:57:58.585Z,71.40
2022-09-20T20:59:30.744Z,71.38
2022-09-20T21:01:15.067Z,71.29
2022-09-20T21:02:47.161Z,71.26
2022-09-20T21:04:19.333Z,71.16
2022-09-20T21:05:55.246Z,70.85
2022-09-20T21:07:27.292Z,70.87
2022-09-20T21:08:59.436Z,71.41
2022-09-20T21:10:31.537Z,71.60
2022-09-20T21:12:03.658Z,71.84
2022-09-20T21:13:36.074Z,72.02
2022-09-20T21:15:08.391Z,72.42
2022-09-20T21:16:45.784Z,72.06
2022-09-20T21:18:17.806Z,72.28
2022-09-20T21:19:50.299Z,72.16
2022-09-20T21:21:35.599Z,72.18
2022-09-20T21:23:07.672Z,72.21
2022-09-20T21:24:39.645Z,72.11
2022-09-20T21:26:12.818Z,72.14
2022-09-20T21:27:44.940Z,71.94
2022-09-20T21:29:17.285Z,72.06
2022-09-20T21:30:49.316Z,72.54
2022-09-20T21:32:21.333Z,72.33
2022-09-20T21:33:53.801Z,72.49
2022-09-20T21:35:25.827Z,72.70
2022-09-20T21:36:57.822Z,72.67
2022-09-20T21:38:33.566Z,72.83
2022-09-20T21:40:06.242Z,72.69
2022-09-20T22:43:18.334Z,72.19
2022-09-20T22:44:50.378Z,72.72
2022-09-20T22:46:24.867Z,72.76
2022-09-20T22:47:56.892Z,72.85
2022-09-20T22:49:28.916Z,72.84
2022-09-20T22:51:06.735Z,72.79
2022-09-20T22:52:38.668Z,72.99
2022-09-20T22:54:12.187Z,72.38
2022-09-20T22:55:43.983Z,72.17
2022-09-20T22:57:15.989Z,71.96
2022-09-20T22:58:50.923Z,72.22
2022-09-20T23:00:23.135Z,72.33
2022-09-20T23:01:55.216Z,72.13
2022-09-20T23:03:27.254Z,72.22
2022-09-20T23:04:59.269Z,72.52
2022-09-20T23:06:34.542Z,72.33
2022-09-20T23:08:06.670Z,72.26
2022-09-20T23:09:38.695Z,72.00